sensor_id;sensor_type;location;lat;lon;timestamp;pressure;altitude;pressure_sealevel;temperature;humidity
37068;BME280;22982;42.848;25.468;2023-04-26T00:01:06;95331.78;;;9.01;100.00
37068;BME280;22982;42.848;25.468;2023-04-26T00:06:09;95328.78;;;8.94;100.00
37068;BME280;22982;42.848;25.468;2023-04-26T00:11:13;95342.34;;;8.99;100.00
37068;BME280;22982;42.848;25.468;2023-04-26T00:16:15;95330.84;;;8.89;100.00
37068;BME280;22982;42.848;25.468;2023-04-26T00:21:19;95317.34;;;8.95;100.00
37068;BME280;22982;42.848;25.468;2023-04-26T00:26:22;95314.22;;;8.90;100.00
37068;BME280;22982;42.848;25.468;2023-04-26T00:31:25;95306.38;;;8.90;100.00
37068;BME280;22982;42.848;25.468;2023-04-26T00:36:28;95314.53;;;8.98;100.00
37068;BME280;22982;42.848;25.468;2023-04-26T00:41:31;95309.94;;;8.89;100.00
37068;BME280;22982;42.848;25.468;2023-04-26T00:46:33;95291.75;;;8.75;100.00
37068;BME280;22982;42.848;25.468;2023-04-26T00:51:36;95289.44;;;8.83;100.00
37068;BME280;22982;42.848;25.468;2023-04-26T00:56:39;95289.56;;;8.69;100.00
37068;BME280;22982;42.848;25.468;2023-04-26T01:01:42;95290.50;;;8.68;100.00
37068;BME280;22982;42.848;25.468;2023-04-26T01:06:45;95277.72;;;8.76;100.00
37068;BME280;22982;42.848;25.468;2023-04-26T01:11:47;95284.31;;;8.94;100.00
37068;BME280;22982;42.848;25.468;2023-04-26T01:16:50;95271.03;;;8.85;100.00
37068;BME280;22982;42.848;25.468;2023-04-26T01:21:53;95279.09;;;8.69;100.00
37068;BME280;22982;42.848;25.468;2023-04-26T01:26:56;95260.63;;;8.59;100.00
37068;BME280;22982;42.848;25.468;2023-04-26T01:31:59;95286.13;;;8.55;100.00
37068;BME280;22982;42.848;25.468;2023-04-26T01:37:02;95274.09;;;8.66;100.00
37068;BME280;22982;42.848;25.468;2023-04-26T01:42:05;95233.94;;;8.41;100.00
37068;BME280;22982;42.848;25.468;2023-04-26T01:47:07;95253.59;;;8.47;100.00
37068;BME280;22982;42.848;25.468;2023-04-26T01:52:10;95259.78;;;8.58;100.00
37068;BME280;22982;42.848;25.468;2023-04-26T01:57:12;95241.19;;;8.50;100.00
37068;BME280;22982;42.848;25.468;2023-04-26T02:02:16;95213.25;;;8.38;100.00
37068;BME280;22982;42.848;25.468;2023-04-26T02:07:20;95243.38;;;8.56;100.00
37068;BME280;22982;42.848;25.468;2023-04-26T02:12:22;95203.63;;;8.25;100.00
37068;BME280;22982;42.848;25.468;2023-04-26T02:17:24;95228.63;;;8.30;100.00
37068;BME280;22982;42.848;25.468;2023-04-26T02:22:27;95227.88;;;8.28;100.00
37068;BME280;22982;42.848;25.468;2023-04-26T02:27:49;95226.09;;;8.15;100.00
37068;BME280;22982;42.848;25.468;2023-04-26T02:32:53;95233.22;;;8.13;100.00
37068;BME280;22982;42.848;25.468;2023-04-26T02:37:56;95215.03;;;7.99;100.00
37068;BME280;22982;42.848;25.468;2023-04-26T02:43:00;95223.25;;;8.05;100.00
37068;BME280;22982;42.848;25.468;2023-04-26T02:48:02;95231.00;;;8.20;100.00
37068;BME280;22982;42.848;25.468;2023-04-26T02:53:05;95223.16;;;8.33;100.00
37068;BME280;22982;42.848;25.468;2023-04-26T02:58:07;95225.56;;;8.36;100.00
37068;BME280;22982;42.848;25.468;2023-04-26T03:03:10;95229.47;;;8.43;100.00
37068;BME280;22982;42.848;25.468;2023-04-26T03:08:14;95224.03;;;8.46;100.00
37068;BME280;22982;42.848;25.468;2023-04-26T03:13:16;95241.78;;;8.41;100.00
37068;BME280;22982;42.848;25.468;2023-04-26T03:18:20;95225.28;;;8.28;100.00
37068;BME280;22982;42.848;25.468;2023-04-26T03:23:22;95257.28;;;8.44;100.00
37068;BME280;22982;42.848;25.468;2023-04-26T03:28:27;95237.81;;;8.22;100.00
37068;BME280;22982;42.848;25.468;2023-04-26T03:33:30;95257.00;;;8.34;100.00
37068;BME280;22982;42.848;25.468;2023-04-26T03:38:33;95244.47;;;8.01;100.00
37068;BME280;22982;42.848;25.468;2023-04-26T03:43:36;95270.16;;;8.07;100.00
37068;BME280;22982;42.848;25.468;2023-04-26T03:48:39;95290.66;;;8.13;100.00
37068;BME280;22982;42.848;25.468;2023-04-26T03:53:42;95280.22;;;8.13;100.00
37068;BME280;22982;42.848;25.468;2023-04-26T03:58:47;95264.28;;;7.91;100.00
37068;BME280;22982;42.848;25.468;2023-04-26T04:03:51;95276.59;;;7.89;100.00
37068;BME280;22982;42.848;25.468;2023-04-26T04:08:54;95291.16;;;8.18;100.00
37068;BME280;22982;42.848;25.468;2023-04-26T04:13:57;95305.78;;;8.21;100.00
37068;BME280;22982;42.848;25.468;2023-04-26T04:19:00;95298.59;;;8.24;100.00
37068;BME280;22982;42.848;25.468;2023-04-26T04:24:03;95308.22;;;8.37;100.00
37068;BME280;22982;42.848;25.468;2023-04-26T04:29:06;95300.59;;;8.34;100.00
37068;BME280;22982;42.848;25.468;2023-04-26T04:34:12;95305.97;;;8.58;100.00
37068;BME280;22982;42.848;25.468;2023-04-26T04:39:16;95294.25;;;8.63;100.00
37068;BME280;22982;42.848;25.468;2023-04-26T04:44:19;95290.91;;;8.61;100.00
37068;BME280;22982;42.848;25.468;2023-04-26T04:49:26;95286.63;;;8.73;100.00
37068;BME280;22982;42.848;25.468;2023-04-26T04:54:28;95261.22;;;8.88;100.00
37068;BME280;22982;42.848;25.468;2023-04-26T04:59:31;95273.56;;;9.23;100.00
37068;BME280;22982;42.848;25.468;2023-04-26T05:04:34;95251.06;;;9.33;100.00
37068;BME280;22982;42.848;25.468;2023-04-26T05:09:38;95255.63;;;9.91;100.00
37068;BME280;22982;42.848;25.468;2023-04-26T05:14:40;95265.81;;;10.53;100.00
37068;BME280;22982;42.848;25.468;2023-04-26T05:19:43;95253.69;;;11.64;100.00
37068;BME280;22982;42.848;25.468;2023-04-26T05:24:47;95253.75;;;12.38;100.00
37068;BME280;22982;42.848;25.468;2023-04-26T05:29:50;95242.72;;;12.75;100.00
37068;BME280;22982;42.848;25.468;2023-04-26T05:35:18;95240.47;;;12.40;100.00
37068;BME280;22982;42.848;25.468;2023-04-26T05:40:20;95231.34;;;12.65;100.00
37068;BME280;22982;42.848;25.468;2023-04-26T05:45:23;95249.31;;;12.91;100.00
37068;BME280;22982;42.848;25.468;2023-04-26T05:50:26;95246.69;;;13.72;100.00
37068;BME280;22982;42.848;25.468;2023-04-26T05:55:29;95237.75;;;15.08;96.50
37068;BME280;22982;42.848;25.468;2023-04-26T06:00:32;95213.72;;;18.33;72.76
37068;BME280;22982;42.848;25.468;2023-04-26T06:05:35;95204.22;;;21.28;51.13
37068;BME280;22982;42.848;25.468;2023-04-26T06:10:39;95196.88;;;23.79;42.81
37068;BME280;22982;42.848;25.468;2023-04-26T06:15:42;95174.09;;;26.77;35.54
37068;BME280;22982;42.848;25.468;2023-04-26T06:20:45;95195.38;;;27.22;34.83
37068;BME280;22982;42.848;25.468;2023-04-26T06:25:48;95187.09;;;27.79;33.31
37068;BME280;22982;42.848;25.468;2023-04-26T06:30:51;95180.25;;;27.46;31.83
37068;BME280;22982;42.848;25.468;2023-04-26T06:35:54;95182.22;;;28.18;30.12
37068;BME280;22982;42.848;25.468;2023-04-26T06:40:58;95192.50;;;28.82;28.63
37068;BME280;22982;42.848;25.468;2023-04-26T06:46:01;95198.41;;;27.51;29.29
37068;BME280;22982;42.848;25.468;2023-04-26T06:51:05;95199.03;;;25.89;30.98
37068;BME280;22982;42.848;25.468;2023-04-26T06:56:08;95180.00;;;26.86;30.17
37068;BME280;22982;42.848;25.468;2023-04-26T07:01:11;95170.94;;;27.24;27.88
37068;BME280;22982;42.848;25.468;2023-04-26T07:06:14;95179.91;;;25.72;32.38
37068;BME280;22982;42.848;25.468;2023-04-26T07:11:18;95189.38;;;25.29;30.48
37068;BME280;22982;42.848;25.468;2023-04-26T07:16:20;95190.66;;;24.80;32.65
37068;BME280;22982;42.848;25.468;2023-04-26T07:21:23;95198.91;;;23.70;33.55
37068;BME280;22982;42.848;25.468;2023-04-26T07:26:26;95185.72;;;20.67;37.36
37068;BME280;22982;42.848;25.468;2023-04-26T07:31:30;95210.72;;;19.73;39.68
37068;BME280;22982;42.848;25.468;2023-04-26T07:36:33;95212.84;;;19.78;41.13
37068;BME280;22982;42.848;25.468;2023-04-26T07:41:36;95219.22;;;19.60;40.93
37068;BME280;22982;42.848;25.468;2023-04-26T07:46:38;95204.09;;;18.24;43.77
37068;BME280;22982;42.848;25.468;2023-04-26T07:51:42;95201.66;;;16.78;47.08
37068;BME280;22982;42.848;25.468;2023-04-26T07:56:45;95220.41;;;17.62;44.44
37068;BME280;22982;42.848;25.468;2023-04-26T08:01:48;95205.06;;;17.90;44.13
37068;BME280;22982;42.848;25.468;2023-04-26T08:06:50;95203.03;;;18.99;42.37
37068;BME280;22982;42.848;25.468;2023-04-26T08:11:54;95221.84;;;18.81;42.12
37068;BME280;22982;42.848;25.468;2023-04-26T08:16:56;95211.34;;;17.30;46.39
37068;BME280;22982;42.848;25.468;2023-04-26T08:21:59;95212.47;;;17.19;47.72
37068;BME280;22982;42.848;25.468;2023-04-26T08:27:01;95232.03;;;16.92;47.53
37068;BME280;22982;42.848;25.468;2023-04-26T08:32:05;95216.94;;;17.19;47.44
37068;BME280;22982;42.848;25.468;2023-04-26T08:37:08;95223.22;;;17.18;48.24
37068;BME280;22982;42.848;25.468;2023-04-26T08:42:15;95206.63;;;19.15;41.96
37068;BME280;22982;42.848;25.468;2023-04-26T08:47:28;95195.41;;;20.59;39.56
37068;BME280;22982;42.848;25.468;2023-04-26T08:52:35;95195.69;;;20.50;41.43
37068;BME280;22982;42.848;25.468;2023-04-26T08:57:39;95191.22;;;20.65;38.87
37068;BME280;22982;42.848;25.468;2023-04-26T09:02:51;95203.22;;;19.68;39.38
37068;BME280;22982;42.848;25.468;2023-04-26T09:08:00;95213.72;;;18.25;42.54
37068;BME280;22982;42.848;25.468;2023-04-26T09:13:06;95188.44;;;17.72;44.06
37068;BME280;22982;42.848;25.468;2023-04-26T09:18:18;95183.69;;;17.92;43.31
37068;BME280;22982;42.848;25.468;2023-04-26T09:23:22;95213.78;;;17.58;44.94
37068;BME280;22982;42.848;25.468;2023-04-26T09:28:25;95210.31;;;17.15;45.90
37068;BME280;22982;42.848;25.468;2023-04-26T09:33:28;95194.22;;;16.82;46.50
37068;BME280;22982;42.848;25.468;2023-04-26T09:38:40;95210.72;;;16.68;46.25
37068;BME280;22982;42.848;25.468;2023-04-26T09:43:44;95201.59;;;16.88;46.30
37068;BME280;22982;42.848;25.468;2023-04-26T09:48:59;95194.88;;;16.05;48.00
37068;BME280;22982;42.848;25.468;2023-04-26T09:54:02;95200.25;;;16.84;45.04
37068;BME280;22982;42.848;25.468;2023-04-26T09:59:04;95205.63;;;17.00;44.50
37068;BME280;22982;42.848;25.468;2023-04-26T10:04:12;95194.94;;;16.84;44.06
37068;BME280;22982;42.848;25.468;2023-04-26T10:09:14;95190.41;;;17.53;42.21
37068;BME280;22982;42.848;25.468;2023-04-26T10:14:17;95182.66;;;17.85;41.28
37068;BME280;22982;42.848;25.468;2023-04-26T10:19:20;95199.13;;;17.29;40.43
37068;BME280;22982;42.848;25.468;2023-04-26T10:24:23;95205.44;;;16.76;41.35
37068;BME280;22982;42.848;25.468;2023-04-26T10:35:12;95195.41;;;16.53;43.28
37068;BME280;22982;42.848;25.468;2023-04-26T10:40:25;95211.59;;;16.50;43.01
37068;BME280;22982;42.848;25.468;2023-04-26T10:45:29;95185.78;;;16.52;44.18
37068;BME280;22982;42.848;25.468;2023-04-26T10:50:31;95187.34;;;15.75;45.70
37068;BME280;22982;42.848;25.468;2023-04-26T10:55:42;95183.31;;;16.24;42.32
37068;BME280;22982;42.848;25.468;2023-04-26T11:06:14;95197.00;;;16.46;43.72
37068;BME280;22982;42.848;25.468;2023-04-26T11:11:17;95196.06;;;16.11;41.90
37068;BME280;22982;42.848;25.468;2023-04-26T11:16:27;95193.09;;;15.42;42.76
37068;BME280;22982;42.848;25.468;2023-04-26T11:21:30;95188.63;;;16.06;41.21
37068;BME280;22982;42.848;25.468;2023-04-26T11:26:33;95189.09;;;16.54;41.88
37068;BME280;22982;42.848;25.468;2023-04-26T11:31:37;95195.91;;;17.17;40.89
37068;BME280;22982;42.848;25.468;2023-04-26T11:36:40;95200.84;;;17.12;40.98
37068;BME280;22982;42.848;25.468;2023-04-26T11:41:42;95188.25;;;17.06;40.76
37068;BME280;22982;42.848;25.468;2023-04-26T11:46:48;95199.56;;;17.16;40.82
37068;BME280;22982;42.848;25.468;2023-04-26T11:51:51;95203.88;;;16.83;41.08
37068;BME280;22982;42.848;25.468;2023-04-26T11:56:54;95196.44;;;16.16;42.22
37068;BME280;22982;42.848;25.468;2023-04-26T12:01:58;95194.50;;;16.44;42.45
37068;BME280;22982;42.848;25.468;2023-04-26T12:07:05;95205.75;;;16.73;42.78
37068;BME280;22982;42.848;25.468;2023-04-26T12:12:10;95207.31;;;16.57;41.24
37068;BME280;22982;42.848;25.468;2023-04-26T12:17:13;95213.19;;;16.69;40.66
37068;BME280;22982;42.848;25.468;2023-04-26T12:22:19;95196.59;;;16.85;41.16
37068;BME280;22982;42.848;25.468;2023-04-26T12:27:23;95198.31;;;17.45;39.64
37068;BME280;22982;42.848;25.468;2023-04-26T12:32:25;95198.25;;;17.20;40.71
37068;BME280;22982;42.848;25.468;2023-04-26T12:37:28;95205.19;;;16.35;39.68
37068;BME280;22982;42.848;25.468;2023-04-26T12:42:30;95187.19;;;16.64;40.95
37068;BME280;22982;42.848;25.468;2023-04-26T12:47:34;95203.66;;;17.11;39.44
37068;BME280;22982;42.848;25.468;2023-04-26T12:52:36;95192.91;;;17.12;39.23
37068;BME280;22982;42.848;25.468;2023-04-26T12:57:40;95200.28;;;16.22;41.75
37068;BME280;22982;42.848;25.468;2023-04-26T13:02:43;95189.28;;;16.08;43.03
37068;BME280;22982;42.848;25.468;2023-04-26T13:07:45;95180.28;;;16.45;41.44
37068;BME280;22982;42.848;25.468;2023-04-26T13:12:48;95181.38;;;16.35;40.99
37068;BME280;22982;42.848;25.468;2023-04-26T13:17:51;95187.84;;;16.14;42.07
37068;BME280;22982;42.848;25.468;2023-04-26T13:22:54;95195.88;;;15.86;43.41
37068;BME280;22982;42.848;25.468;2023-04-26T13:27:57;95198.72;;;16.11;43.70
37068;BME280;22982;42.848;25.468;2023-04-26T13:33:00;95191.56;;;16.30;43.36
37068;BME280;22982;42.848;25.468;2023-04-26T13:38:02;95190.81;;;16.63;42.43
37068;BME280;22982;42.848;25.468;2023-04-26T13:43:05;95189.19;;;16.71;43.37
37068;BME280;22982;42.848;25.468;2023-04-26T13:48:07;95196.44;;;16.87;42.76
37068;BME280;22982;42.848;25.468;2023-04-26T13:53:11;95186.63;;;16.53;43.60
37068;BME280;22982;42.848;25.468;2023-04-26T13:58:13;95198.66;;;16.47;44.04
37068;BME280;22982;42.848;25.468;2023-04-26T14:03:17;95199.56;;;16.12;44.18
37068;BME280;22982;42.848;25.468;2023-04-26T14:08:19;95194.13;;;15.95;44.14
37068;BME280;22982;42.848;25.468;2023-04-26T14:13:22;95211.16;;;15.65;44.37
37068;BME280;22982;42.848;25.468;2023-04-26T14:18:24;95231.16;;;15.67;45.00
37068;BME280;22982;42.848;25.468;2023-04-26T14:23:26;95239.38;;;15.74;45.21
37068;BME280;22982;42.848;25.468;2023-04-26T14:28:29;95236.97;;;15.53;45.74
37068;BME280;22982;42.848;25.468;2023-04-26T14:33:31;95255.06;;;15.76;45.60
37068;BME280;22982;42.848;25.468;2023-04-26T14:38:34;95257.16;;;15.72;45.36
37068;BME280;22982;42.848;25.468;2023-04-26T14:43:36;95239.75;;;15.51;46.08
37068;BME280;22982;42.848;25.468;2023-04-26T14:48:39;95258.28;;;15.69;46.41
37068;BME280;22982;42.848;25.468;2023-04-26T14:53:42;95241.03;;;15.47;46.80
37068;BME280;22982;42.848;25.468;2023-04-26T14:58:44;95259.31;;;15.59;47.71
37068;BME280;22982;42.848;25.468;2023-04-26T15:03:47;95252.88;;;15.43;47.89
37068;BME280;22982;42.848;25.468;2023-04-26T15:08:50;95271.25;;;15.07;48.44
37068;BME280;22982;42.848;25.468;2023-04-26T15:13:52;95267.72;;;15.17;49.10
37068;BME280;22982;42.848;25.468;2023-04-26T15:18:55;95275.50;;;15.18;48.77
37068;BME280;22982;42.848;25.468;2023-04-26T15:23:59;95262.41;;;14.89;48.91
37068;BME280;22982;42.848;25.468;2023-04-26T15:29:02;95264.00;;;14.62;51.82
37068;BME280;22982;42.848;25.468;2023-04-26T15:34:04;95260.91;;;14.77;54.48
37068;BME280;22982;42.848;25.468;2023-04-26T15:39:07;95254.72;;;14.96;50.26
37068;BME280;22982;42.848;25.468;2023-04-26T15:44:10;95263.81;;;15.21;51.27
37068;BME280;22982;42.848;25.468;2023-04-26T15:49:13;95272.19;;;14.59;50.19
37068;BME280;22982;42.848;25.468;2023-04-26T15:54:16;95263.16;;;14.32;50.68
37068;BME280;22982;42.848;25.468;2023-04-26T15:59:18;95273.44;;;14.45;66.14
37068;BME280;22982;42.848;25.468;2023-04-26T16:04:20;95288.16;;;14.38;56.03
37068;BME280;22982;42.848;25.468;2023-04-26T16:09:23;95282.72;;;14.79;84.96
37068;BME280;22982;42.848;25.468;2023-04-26T16:14:26;95282.31;;;14.54;61.34
37068;BME280;22982;42.848;25.468;2023-04-26T16:19:29;95306.63;;;14.67;56.75
37068;BME280;22982;42.848;25.468;2023-04-26T16:24:32;95303.84;;;14.40;53.98
37068;BME280;22982;42.848;25.468;2023-04-26T16:29:35;95301.50;;;14.66;66.52
37068;BME280;22982;42.848;25.468;2023-04-26T16:34:37;95310.38;;;14.55;53.71
37068;BME280;22982;42.848;25.468;2023-04-26T16:39:40;95324.50;;;14.83;65.94
37068;BME280;22982;42.848;25.468;2023-04-26T16:44:42;95329.25;;;14.31;53.13
37068;BME280;22982;42.848;25.468;2023-04-26T16:49:45;95332.69;;;14.12;55.96
37068;BME280;22982;42.848;25.468;2023-04-26T16:54:47;95326.97;;;13.77;52.94
37068;BME280;22982;42.848;25.468;2023-04-26T16:59:50;95334.22;;;13.45;52.81
37068;BME280;22982;42.848;25.468;2023-04-26T17:04:52;95347.72;;;13.61;51.76
37068;BME280;22982;42.848;25.468;2023-04-26T17:09:56;95339.94;;;13.50;51.00
37068;BME280;22982;42.848;25.468;2023-04-26T17:14:59;95357.34;;;13.41;50.81
37068;BME280;22982;42.848;25.468;2023-04-26T17:20:06;95372.69;;;13.15;51.82
37068;BME280;22982;42.848;25.468;2023-04-26T17:25:11;95374.63;;;13.13;51.37
37068;BME280;22982;42.848;25.468;2023-04-26T17:30:15;95397.75;;;13.09;52.36
37068;BME280;22982;42.848;25.468;2023-04-26T17:35:17;95416.03;;;13.11;52.82
37068;BME280;22982;42.848;25.468;2023-04-26T17:40:19;95407.75;;;13.15;53.34
37068;BME280;22982;42.848;25.468;2023-04-26T17:45:23;95424.44;;;12.83;53.75
37068;BME280;22982;42.848;25.468;2023-04-26T17:50:25;95435.41;;;12.89;53.88
37068;BME280;22982;42.848;25.468;2023-04-26T17:55:28;95432.50;;;12.71;54.73
37068;BME280;22982;42.848;25.468;2023-04-26T18:00:30;95444.44;;;12.75;54.83
37068;BME280;22982;42.848;25.468;2023-04-26T18:05:33;95457.84;;;12.72;55.98
37068;BME280;22982;42.848;25.468;2023-04-26T18:10:35;95461.06;;;12.75;56.04
37068;BME280;22982;42.848;25.468;2023-04-26T18:15:42;95463.97;;;12.61;56.51
37068;BME280;22982;42.848;25.468;2023-04-26T18:20:44;95486.78;;;12.72;58.17
37068;BME280;22982;42.848;25.468;2023-04-26T18:25:47;95484.50;;;12.35;60.34
37068;BME280;22982;42.848;25.468;2023-04-26T18:31:04;95502.41;;;12.30;61.95
37068;BME280;22982;42.848;25.468;2023-04-26T18:36:09;95481.41;;;12.18;63.76
37068;BME280;22982;42.848;25.468;2023-04-26T18:41:11;95508.06;;;12.25;65.49
37068;BME280;22982;42.848;25.468;2023-04-26T18:46:15;95511.88;;;12.32;68.29
37068;BME280;22982;42.848;25.468;2023-04-26T18:51:17;95506.50;;;12.22;70.42
37068;BME280;22982;42.848;25.468;2023-04-26T18:56:20;95529.69;;;12.06;78.44
37068;BME280;22982;42.848;25.468;2023-04-26T19:01:23;95512.56;;;11.78;82.68
37068;BME280;22982;42.848;25.468;2023-04-26T19:06:26;95499.41;;;11.78;81.88
37068;BME280;22982;42.848;25.468;2023-04-26T19:11:29;95533.72;;;11.76;83.98
37068;BME280;22982;42.848;25.468;2023-04-26T19:16:32;95506.81;;;11.61;84.17
37068;BME280;22982;42.848;25.468;2023-04-26T19:21:36;95548.88;;;11.73;87.67
37068;BME280;22982;42.848;25.468;2023-04-26T19:26:38;95541.53;;;11.54;91.42
37068;BME280;22982;42.848;25.468;2023-04-26T19:31:41;95560.94;;;11.40;95.98
37068;BME280;22982;42.848;25.468;2023-04-26T19:36:43;95569.72;;;10.68;97.26
37068;BME280;22982;42.848;25.468;2023-04-26T19:41:46;95555.53;;;10.21;98.64
37068;BME280;22982;42.848;25.468;2023-04-26T19:46:48;95578.94;;;9.98;100.00
37068;BME280;22982;42.848;25.468;2023-04-26T19:51:51;95589.72;;;9.81;100.00
37068;BME280;22982;42.848;25.468;2023-04-26T19:56:54;95599.34;;;9.54;100.00
37068;BME280;22982;42.848;25.468;2023-04-26T20:01:56;95589.28;;;9.48;100.00
37068;BME280;22982;42.848;25.468;2023-04-26T20:12:20;95599.94;;;9.32;100.00
37068;BME280;22982;42.848;25.468;2023-04-26T20:17:22;95600.31;;;9.13;100.00
37068;BME280;22982;42.848;25.468;2023-04-26T20:22:25;95577.28;;;8.78;100.00
37068;BME280;22982;42.848;25.468;2023-04-26T20:27:27;95601.94;;;8.74;100.00
37068;BME280;22982;42.848;25.468;2023-04-26T20:32:30;95593.56;;;8.69;100.00
37068;BME280;22982;42.848;25.468;2023-04-26T20:37:33;95580.31;;;8.58;100.00
37068;BME280;22982;42.848;25.468;2023-04-26T20:42:37;95590.41;;;8.64;100.00
37068;BME280;22982;42.848;25.468;2023-04-26T20:47:39;95584.16;;;8.52;100.00
37068;BME280;22982;42.848;25.468;2023-04-26T20:52:42;95603.41;;;8.51;100.00
37068;BME280;22982;42.848;25.468;2023-04-26T21:03:06;95635.97;;;8.31;100.00
37068;BME280;22982;42.848;25.468;2023-04-26T21:08:09;95627.47;;;8.28;100.00
37068;BME280;22982;42.848;25.468;2023-04-26T21:13:15;95657.88;;;8.29;100.00
37068;BME280;22982;42.848;25.468;2023-04-26T21:18:19;95647.97;;;8.19;100.00
37068;BME280;22982;42.848;25.468;2023-04-26T21:23:22;95652.94;;;8.24;100.00
37068;BME280;22982;42.848;25.468;2023-04-26T21:28:25;95643.69;;;7.90;100.00
37068;BME280;22982;42.848;25.468;2023-04-26T21:33:28;95663.81;;;8.02;100.00
37068;BME280;22982;42.848;25.468;2023-04-26T21:38:30;95674.47;;;7.99;100.00
37068;BME280;22982;42.848;25.468;2023-04-26T21:43:33;95646.06;;;7.78;100.00
37068;BME280;22982;42.848;25.468;2023-04-26T21:48:35;95697.75;;;8.02;100.00
37068;BME280;22982;42.848;25.468;2023-04-26T21:53:40;95714.28;;;8.02;100.00
37068;BME280;22982;42.848;25.468;2023-04-26T21:58:42;95678.25;;;7.79;100.00
37068;BME280;22982;42.848;25.468;2023-04-26T22:03:45;95720.47;;;7.85;100.00
37068;BME280;22982;42.848;25.468;2023-04-26T22:08:47;95745.88;;;7.98;100.00
37068;BME280;22982;42.848;25.468;2023-04-26T22:13:50;95761.63;;;7.96;100.00
37068;BME280;22982;42.848;25.468;2023-04-26T22:18:53;95751.63;;;7.89;100.00
37068;BME280;22982;42.848;25.468;2023-04-26T22:23:55;95753.53;;;8.01;100.00
37068;BME280;22982;42.848;25.468;2023-04-26T22:28:58;95758.38;;;8.07;100.00
37068;BME280;22982;42.848;25.468;2023-04-26T22:34:00;95760.44;;;8.16;100.00
37068;BME280;22982;42.848;25.468;2023-04-26T22:39:03;95753.19;;;8.21;100.00
37068;BME280;22982;42.848;25.468;2023-04-26T22:44:06;95767.63;;;8.43;100.00
37068;BME280;22982;42.848;25.468;2023-04-26T22:49:09;95757.88;;;8.31;100.00
37068;BME280;22982;42.848;25.468;2023-04-26T22:54:11;95772.75;;;8.45;100.00
37068;BME280;22982;42.848;25.468;2023-04-26T22:59:14;95761.97;;;8.20;100.00
37068;BME280;22982;42.848;25.468;2023-04-26T23:04:17;95765.75;;;8.00;100.00
37068;BME280;22982;42.848;25.468;2023-04-26T23:09:20;95775.16;;;8.03;100.00
37068;BME280;22982;42.848;25.468;2023-04-26T23:14:22;95800.25;;;8.05;100.00
37068;BME280;22982;42.848;25.468;2023-04-26T23:19:25;95800.00;;;8.10;100.00
37068;BME280;22982;42.848;25.468;2023-04-26T23:24:27;95782.13;;;7.88;100.00
37068;BME280;22982;42.848;25.468;2023-04-26T23:29:30;95783.97;;;7.86;100.00
37068;BME280;22982;42.848;25.468;2023-04-26T23:34:32;95782.13;;;7.88;100.00
37068;BME280;22982;42.848;25.468;2023-04-26T23:39:35;95803.13;;;8.01;100.00
37068;BME280;22982;42.848;25.468;2023-04-26T23:44:38;95811.88;;;8.00;100.00
37068;BME280;22982;42.848;25.468;2023-04-26T23:49:41;95792.22;;;7.78;100.00
37068;BME280;22982;42.848;25.468;2023-04-26T23:54:43;95770.38;;;7.65;100.00
37068;BME280;22982;42.848;25.468;2023-04-26T23:59:46;95799.38;;;7.91;100.00
